createdAt,value
2014-08-05T00:00:03.869Z,100526
2014-08-05T00:00:22.150Z,100532
2014-08-05T00:00:40.418Z,100521
2014-08-05T00:00:58.714Z,100526
2014-08-05T00:01:16.996Z,100526
2014-08-05T00:01:35.277Z,100526
2014-08-05T00:01:53.560Z,100523
2014-08-05T00:02:11.841Z,100529
2014-08-05T00:02:30.123Z,100523
2014-08-05T00:02:48.406Z,100532
2014-08-05T00:03:06.687Z,100523
2014-08-05T00:03:24.968Z,100523
2014-08-05T00:03:43.468Z,100521
2014-08-05T00:04:01.549Z,100523
2014-08-05T00:04:19.830Z,100538
2014-08-05T00:04:38.111Z,100523
2014-08-05T00:04:56.394Z,100529
2014-08-05T00:05:14.676Z,100523
2014-08-05T00:05:32.972Z,100521
2014-08-05T00:05:51.238Z,100523
2014-08-05T00:06:09.521Z,100529
2014-08-05T00:06:27.803Z,100526
2014-08-05T00:06:46.099Z,100526
2014-08-05T00:07:04.384Z,100526
2014-08-05T00:07:22.649Z,100526
2014-08-05T00:07:40.946Z,100535
2014-08-05T00:07:59.227Z,100521
2014-08-05T00:08:17.510Z,100529
2014-08-05T00:08:35.791Z,100523
2014-08-05T00:08:54.072Z,100532
2014-08-05T00:09:12.355Z,100523
2014-08-05T00:09:30.637Z,100518
2014-08-05T00:09:49.121Z,100523
2014-08-05T00:10:07.184Z,100523
2014-08-05T00:10:25.482Z,100521
2014-08-05T00:10:43.764Z,100523
2014-08-05T00:11:02.045Z,100523
2014-08-05T00:11:20.328Z,100518
2014-08-05T00:11:38.609Z,100521
2014-08-05T00:11:56.891Z,100521
2014-08-05T00:12:15.172Z,100529
2014-08-05T00:12:33.455Z,100518
2014-08-05T00:12:51.736Z,100521
2014-08-05T00:13:10.221Z,100523
2014-08-05T00:13:28.302Z,100518
2014-08-05T00:13:46.583Z,100521
2014-08-05T00:14:04.880Z,100521
2014-08-05T00:14:23.161Z,100518
2014-08-05T00:14:41.445Z,100521
2014-08-05T00:14:59.726Z,100518
2014-08-05T00:15:18.007Z,100521
2014-08-05T00:15:36.290Z,100512
2014-08-05T00:15:54.572Z,100518
2014-08-05T00:16:12.853Z,100518
2014-08-05T00:16:31.134Z,100518
2014-08-05T00:16:49.416Z,100521
2014-08-05T00:17:07.901Z,100515
2014-08-05T00:17:25.979Z,100529
2014-08-05T00:17:44.263Z,100526
2014-08-05T00:18:02.544Z,100512
2014-08-05T00:18:20.826Z,100526
2014-08-05T00:18:39.122Z,100520
2014-08-05T00:18:57.406Z,100518
2014-08-05T00:19:15.687Z,100515
2014-08-05T00:19:33.968Z,100515
2014-08-05T00:19:52.251Z,100521
2014-08-05T00:20:10.533Z,100518
2014-08-05T00:20:28.814Z,100515
2014-08-05T00:20:47.095Z,100529
2014-08-05T00:21:05.378Z,100521
2014-08-05T00:21:23.660Z,100509
2014-08-05T00:21:41.957Z,100518
2014-08-05T00:22:00.239Z,100515
2014-08-05T00:22:18.520Z,100515
2014-08-05T00:22:36.801Z,100521
2014-08-05T00:22:55.083Z,100512
2014-08-05T00:23:13.366Z,100512
2014-08-05T00:23:31.647Z,100512
2014-08-05T00:23:49.928Z,100500
2014-08-05T00:24:08.213Z,100509
2014-08-05T00:24:26.697Z,100515
2014-08-05T00:24:44.775Z,100518
2014-08-05T00:25:03.056Z,100520
2014-08-05T00:25:21.340Z,100515
2014-08-05T00:25:39.621Z,100509
2014-08-05T00:25:57.902Z,100515
2014-08-05T00:26:16.201Z,100509
2014-08-05T00:26:34.482Z,100512
2014-08-05T00:26:52.763Z,100509
2014-08-05T00:27:11.029Z,100512
2014-08-05T00:27:29.312Z,100518
2014-08-05T00:27:47.609Z,100512
2014-08-05T00:28:05.890Z,100512
2014-08-05T00:28:24.174Z,100515
2014-08-05T00:28:42.455Z,100515
2014-08-05T00:29:00.752Z,100506
2014-08-05T00:29:19.221Z,100512
2014-08-05T00:29:37.316Z,100500
2014-08-05T00:29:55.598Z,100518
2014-08-05T00:30:13.879Z,100509
2014-08-05T00:30:32.163Z,100512
2014-08-05T00:30:50.444Z,100509
2014-08-05T00:31:08.726Z,100498
2014-08-05T00:31:27.022Z,100509
2014-08-05T00:31:45.306Z,100506
2014-08-05T00:32:03.587Z,100498
2014-08-05T00:32:21.868Z,100503
2014-08-05T00:32:40.354Z,100503
2014-08-05T00:32:58.447Z,100498
2014-08-05T00:33:16.729Z,100498
2014-08-05T00:33:35.010Z,100503
2014-08-05T00:33:53.293Z,100498
2014-08-05T00:34:11.574Z,100498
2014-08-05T00:34:29.856Z,100503
2014-08-05T00:34:48.139Z,100498
2014-08-05T00:35:06.420Z,100500
2014-08-05T00:35:24.701Z,100498
2014-08-05T00:35:43.000Z,100503
2014-08-05T00:36:01.281Z,100498
2014-08-05T00:36:19.563Z,100500
2014-08-05T00:36:37.844Z,100498
2014-08-05T00:36:56.127Z,100498
2014-08-05T00:37:14.424Z,100500
2014-08-05T00:37:32.705Z,100500
2014-08-05T00:37:50.990Z,100500
2014-08-05T00:38:09.271Z,100503
2014-08-05T00:38:27.552Z,100509
2014-08-05T00:38:45.833Z,100503
2014-08-05T00:39:04.117Z,100500
2014-08-05T00:39:22.398Z,100509
2014-08-05T00:39:40.679Z,100506
2014-08-05T00:39:58.961Z,100495
2014-08-05T00:40:17.243Z,100500
2014-08-05T00:40:35.539Z,100509
2014-08-05T00:40:53.805Z,100503
2014-08-05T00:41:12.291Z,100498
2014-08-05T00:41:30.385Z,100492
2014-08-05T00:41:48.666Z,100503
2014-08-05T00:42:06.951Z,100512
2014-08-05T00:42:25.232Z,100503
2014-08-05T00:42:43.513Z,100509
2014-08-05T00:43:01.810Z,100503
2014-08-05T00:43:20.092Z,100509
2014-08-05T00:43:38.374Z,100506
2014-08-05T00:43:56.655Z,100506
2014-08-05T00:44:14.922Z,100509
2014-08-05T00:44:33.219Z,100500
2014-08-05T00:44:51.501Z,100509
2014-08-05T00:45:09.782Z,100503
2014-08-05T00:45:28.066Z,100503
2014-08-05T00:45:46.550Z,100503
2014-08-05T00:46:04.629Z,100509
2014-08-05T00:46:22.912Z,100515
2014-08-05T00:46:41.209Z,100503
2014-08-05T00:46:59.490Z,100506
2014-08-05T00:47:17.771Z,100515
2014-08-05T00:47:36.054Z,100506
2014-08-05T00:47:54.336Z,100509
2014-08-05T00:48:12.617Z,100503
2014-08-05T00:48:30.899Z,100509
2014-08-05T00:48:49.180Z,100509
2014-08-05T00:49:07.462Z,100515
2014-08-05T00:49:25.743Z,100509
2014-08-05T00:49:44.026Z,100509
2014-08-05T00:50:02.323Z,100512
2014-08-05T00:50:20.604Z,100509
2014-08-05T00:50:38.889Z,100503
2014-08-05T00:50:57.373Z,100512
2014-08-05T00:51:15.467Z,100512
2014-08-05T00:51:33.732Z,100512
2014-08-05T00:51:52.031Z,100515
2014-08-05T00:52:10.312Z,100509
2014-08-05T00:52:28.609Z,100506
2014-08-05T00:52:46.893Z,100509
2014-08-05T00:53:05.174Z,100512
2014-08-05T00:53:23.455Z,100512
2014-08-05T00:53:41.736Z,100509
2014-08-05T00:54:00.020Z,100506
2014-08-05T00:54:18.301Z,100512
2014-08-05T00:54:36.582Z,100515
2014-08-05T00:54:54.881Z,100520
2014-08-05T00:55:13.162Z,100523
2014-08-05T00:55:31.443Z,100518
2014-08-05T00:55:49.930Z,100515
2014-08-05T00:56:08.008Z,100515
2014-08-05T00:56:26.289Z,100509
2014-08-05T00:56:44.570Z,100509
2014-08-05T00:57:02.854Z,100509
2014-08-05T00:57:21.135Z,100509
2014-08-05T00:57:39.416Z,100509
2014-08-05T00:57:57.715Z,100503
2014-08-05T00:58:15.996Z,100503
2014-08-05T00:58:34.278Z,100509
2014-08-05T00:58:52.559Z,100503
2014-08-05T00:59:11.045Z,100503
2014-08-05T00:59:29.123Z,100512
2014-08-05T00:59:47.608Z,100506
2014-08-05T01:00:05.891Z,100500
2014-08-05T01:00:24.172Z,100503
2014-08-05T01:00:42.266Z,100509
2014-08-05T01:01:00.532Z,100506
2014-08-05T01:01:18.830Z,100506
2014-08-05T01:01:37.096Z,100503
2014-08-05T01:01:55.393Z,100509
2014-08-05T01:02:13.676Z,100509
2014-08-05T01:02:31.957Z,100512
2014-08-05T01:02:50.239Z,100509
2014-08-05T01:03:08.520Z,100509
2014-08-05T01:03:27.022Z,100509
2014-08-05T01:03:45.084Z,100506
2014-08-05T01:04:03.381Z,100497
2014-08-05T01:04:21.868Z,100518
2014-08-05T01:04:39.946Z,100509
2014-08-05T01:04:58.227Z,100497
2014-08-05T01:05:16.508Z,100500
2014-08-05T01:05:34.792Z,100503
2014-08-05T01:05:53.088Z,100509
2014-08-05T01:06:11.557Z,100506
2014-08-05T01:06:29.637Z,100506
2014-08-05T01:06:47.919Z,100500
2014-08-05T01:07:06.215Z,100509
2014-08-05T01:07:24.497Z,100500
2014-08-05T01:07:42.780Z,100500
2014-08-05T01:08:01.061Z,100497
2014-08-05T01:08:19.342Z,100506
2014-08-05T01:08:37.626Z,100506
2014-08-05T01:08:56.110Z,100509
2014-08-05T01:09:14.188Z,100500
2014-08-05T01:09:32.485Z,100495
2014-08-05T01:09:50.768Z,100500
2014-08-05T01:10:09.050Z,100495
2014-08-05T01:10:27.331Z,100503
2014-08-05T01:10:45.615Z,100492
2014-08-05T01:11:03.896Z,100495
2014-08-05T01:11:22.178Z,100497
2014-08-05T01:11:40.459Z,100497
2014-08-05T01:11:58.742Z,100497
2014-08-05T01:12:17.023Z,100500
2014-08-05T01:12:35.305Z,100495
2014-08-05T01:12:53.588Z,100497
2014-08-05T01:13:11.869Z,100520
2014-08-05T01:13:30.166Z,100497
2014-08-05T01:13:48.447Z,100497
2014-08-05T01:14:06.715Z,100495
2014-08-05T01:14:25.012Z,100500
2014-08-05T01:14:43.293Z,100495
2014-08-05T01:15:01.575Z,100500
2014-08-05T01:15:19.872Z,100497
2014-08-05T01:15:38.153Z,100495
2014-08-05T01:15:56.435Z,100506
2014-08-05T01:16:14.719Z,100495
2014-08-05T01:16:33.000Z,100495
2014-08-05T01:16:51.281Z,100506
2014-08-05T01:17:09.580Z,100506
2014-08-05T01:17:27.861Z,100500
2014-08-05T01:17:46.158Z,100497
2014-08-05T01:18:04.440Z,100506
2014-08-05T01:18:22.925Z,100503
2014-08-05T01:18:41.003Z,100492
2014-08-05T01:18:59.487Z,100495
2014-08-05T01:19:17.569Z,100500
2014-08-05T01:19:35.850Z,100506
2014-08-05T01:19:54.131Z,100503
2014-08-05T01:20:12.428Z,100500
2014-08-05T01:20:30.711Z,100492
2014-08-05T01:20:48.992Z,100495
2014-08-05T01:21:07.274Z,100495
2014-08-05T01:21:25.557Z,100495
2014-08-05T01:21:43.838Z,100500
2014-08-05T01:22:02.119Z,100500
2014-08-05T01:22:20.401Z,100497
2014-08-05T01:22:38.700Z,100500
2014-08-05T01:22:56.965Z,100497
2014-08-05T01:23:15.246Z,100486
2014-08-05T01:23:33.545Z,100497
2014-08-05T01:23:51.827Z,100492
2014-08-05T01:24:10.108Z,100503
2014-08-05T01:24:28.373Z,100497
2014-08-05T01:24:46.657Z,100503
2014-08-05T01:25:04.954Z,100500
2014-08-05T01:25:23.235Z,100500
2014-08-05T01:25:41.519Z,100497
2014-08-05T01:25:59.800Z,100489
2014-08-05T01:26:18.082Z,100492
2014-08-05T01:26:36.363Z,100495
2014-08-05T01:26:54.646Z,100500
2014-08-05T01:27:12.927Z,100486
2014-08-05T01:27:31.224Z,100486
2014-08-05T01:27:49.506Z,100497
2014-08-05T01:28:07.788Z,100486
2014-08-05T01:28:26.069Z,100492
2014-08-05T01:28:44.350Z,100486
2014-08-05T01:29:02.837Z,100486
2014-08-05T01:29:25.337Z,100492
2014-08-05T01:29:43.618Z,100492
2014-08-05T01:30:01.885Z,100489
2014-08-05T01:30:20.167Z,100492
2014-08-05T01:30:38.448Z,100495
2014-08-05T01:30:56.731Z,100492
2014-08-05T01:31:15.012Z,100500
2014-08-05T01:31:33.294Z,100495
2014-08-05T01:31:51.575Z,100492
2014-08-05T01:32:09.843Z,100492
2014-08-05T01:32:28.124Z,100497
2014-08-05T01:32:46.405Z,100497
2014-08-05T01:33:04.688Z,100503
2014-08-05T01:33:22.970Z,100495
2014-08-05T01:33:41.251Z,100500
2014-08-05T01:33:59.516Z,100492
2014-08-05T01:34:17.800Z,100495
2014-08-05T01:34:36.081Z,100500
2014-08-05T01:34:54.362Z,100492
2014-08-05T01:35:12.631Z,100497
2014-08-05T01:35:30.912Z,100480
2014-08-05T01:35:49.396Z,100503
2014-08-05T01:36:07.678Z,100503
2014-08-05T01:36:25.757Z,100497
2014-08-05T01:36:44.022Z,100497
2014-08-05T01:37:02.304Z,100497
2014-08-05T01:37:20.587Z,100492
2014-08-05T01:37:38.853Z,100492
2014-08-05T01:37:57.134Z,100489
2014-08-05T01:38:15.415Z,100495
2014-08-05T01:38:33.698Z,100492
2014-08-05T01:38:51.964Z,100492
2014-08-05T01:39:10.448Z,100492
2014-08-05T01:39:28.528Z,100492
2014-08-05T01:39:46.810Z,100497
2014-08-05T01:40:05.075Z,100497
2014-08-05T01:40:23.357Z,100495
2014-08-05T01:40:41.641Z,100489
2014-08-05T01:41:00.125Z,100486
2014-08-05T01:41:18.203Z,100492
2014-08-05T01:41:36.487Z,100506
2014-08-05T01:41:54.752Z,100492
2014-08-05T01:42:13.033Z,100497
2014-08-05T01:42:31.315Z,100495
2014-08-05T01:42:49.598Z,100492
2014-08-05T01:43:08.082Z,100495
2014-08-05T01:43:26.160Z,100486
2014-08-05T01:43:44.631Z,100492
2014-08-05T01:44:02.709Z,100495
2014-08-05T01:44:20.991Z,100503
2014-08-05T01:44:39.272Z,100497
2014-08-05T01:44:57.555Z,100489
2014-08-05T01:45:15.836Z,100495
2014-08-05T01:45:34.102Z,100495
2014-08-05T01:45:52.385Z,100497
2014-08-05T01:46:10.666Z,100497
2014-08-05T01:46:28.948Z,100503
2014-08-05T01:46:47.214Z,100497
2014-08-05T01:47:05.511Z,100495
2014-08-05T01:47:23.792Z,100489
2014-08-05T01:47:42.074Z,100483
2014-08-05T01:48:00.560Z,100492
2014-08-05T01:48:18.841Z,100509
2014-08-05T01:48:36.904Z,100497
2014-08-05T01:48:55.188Z,100497
2014-08-05T01:49:13.454Z,100503
2014-08-05T01:49:31.938Z,100489
2014-08-05T01:49:50.016Z,100503
2014-08-05T01:50:08.298Z,100500
2014-08-05T01:50:26.580Z,100492
2014-08-05T01:50:44.861Z,100489
2014-08-05T01:51:03.144Z,100486
2014-08-05T01:51:21.425Z,100497
2014-08-05T01:51:39.707Z,100492
2014-08-05T01:51:58.175Z,100497
2014-08-05T01:52:16.257Z,100492
2014-08-05T01:52:34.538Z,100500
2014-08-05T01:52:52.819Z,100495
2014-08-05T01:53:11.102Z,100495
2014-08-05T01:53:29.384Z,100500
2014-08-05T01:53:47.665Z,100497
2014-08-05T01:54:05.930Z,100495
2014-08-05T01:54:24.229Z,100495
2014-08-05T01:54:42.698Z,100503
2014-08-05T01:55:00.776Z,100497
2014-08-05T01:55:19.059Z,100500
2014-08-05T01:55:37.341Z,100503
2014-08-05T01:55:55.622Z,100503
2014-08-05T01:56:13.903Z,100500
2014-08-05T01:56:32.186Z,100500
2014-08-05T01:56:50.452Z,100495
2014-08-05T01:57:08.733Z,100503
2014-08-05T01:57:27.204Z,100500
2014-08-05T01:57:45.298Z,100503
2014-08-05T01:58:03.563Z,100500
2014-08-05T01:58:21.845Z,100503
2014-08-05T01:58:40.128Z,100506
2014-08-05T01:58:58.409Z,100506
2014-08-05T01:59:16.894Z,100515
2014-08-05T01:59:34.975Z,100500
2014-08-05T01:59:53.240Z,100497
2014-08-05T02:00:11.522Z,100506
2014-08-05T02:00:29.803Z,100506
2014-08-05T02:00:48.069Z,100506
2014-08-05T02:01:06.351Z,100506
2014-08-05T02:01:24.632Z,100515
2014-08-05T02:01:42.915Z,100506
2014-08-05T02:02:01.400Z,100518
2014-08-05T02:02:19.478Z,100503
2014-08-05T02:02:37.743Z,100509
2014-08-05T02:02:56.027Z,100506
2014-08-05T02:03:14.308Z,100503
2014-08-05T02:03:32.589Z,100512
2014-08-05T02:03:50.857Z,100506
2014-08-05T02:04:09.341Z,100512
2014-08-05T02:04:27.435Z,100500
2014-08-05T02:04:45.700Z,100506
2014-08-05T02:05:04.187Z,100506
2014-08-05T02:05:22.468Z,100503
2014-08-05T02:05:40.546Z,100500
2014-08-05T02:05:58.830Z,100506
2014-08-05T02:06:17.096Z,100515
2014-08-05T02:06:35.377Z,100512
2014-08-05T02:06:53.659Z,100512
2014-08-05T02:07:11.942Z,100509
2014-08-05T02:07:30.223Z,100503
2014-08-05T02:07:48.489Z,100503
2014-08-05T02:08:06.772Z,100503
2014-08-05T02:08:25.053Z,100506
2014-08-05T02:08:43.334Z,100515
2014-08-05T02:09:01.616Z,100517
2014-08-05T02:09:20.101Z,100503
2014-08-05T02:09:38.164Z,100509
2014-08-05T02:09:56.445Z,100515
2014-08-05T02:10:14.729Z,100517
2014-08-05T02:10:33.010Z,100503
2014-08-05T02:10:51.292Z,100503
2014-08-05T02:11:09.573Z,100509
2014-08-05T02:11:28.058Z,100512
2014-08-05T02:11:46.339Z,100509
2014-08-05T02:12:04.402Z,100497
2014-08-05T02:12:22.685Z,100512
2014-08-05T02:12:41.170Z,100509
2014-08-05T02:12:59.451Z,100512
2014-08-05T02:13:17.513Z,100509
2014-08-05T02:13:35.798Z,100512
2014-08-05T02:13:54.079Z,100515
2014-08-05T02:14:12.563Z,100509
2014-08-05T02:14:30.846Z,100509
2014-08-05T02:14:48.909Z,100500
2014-08-05T02:15:07.190Z,100515
2014-08-05T02:15:25.675Z,100512
2014-08-05T02:15:43.755Z,100512
2014-08-05T02:16:02.020Z,100515
2014-08-05T02:16:20.505Z,100500
2014-08-05T02:16:38.788Z,100509
2014-08-05T02:16:56.866Z,100509
2014-08-05T02:17:15.147Z,100515
2014-08-05T02:17:33.429Z,100506
2014-08-05T02:17:51.695Z,100497
2014-08-05T02:18:09.976Z,100506
2014-08-05T02:18:28.258Z,100495
2014-08-05T02:18:46.542Z,100500
2014-08-05T02:19:05.026Z,100509
2014-08-05T02:19:23.089Z,100509
2014-08-05T02:19:41.386Z,100520
2014-08-05T02:19:59.669Z,100509
2014-08-05T02:20:17.950Z,100509
2014-08-05T02:20:36.419Z,100515
2014-08-05T02:20:54.516Z,100506
2014-08-05T02:21:12.781Z,100512
2014-08-05T02:21:31.266Z,100512
2014-08-05T02:21:49.547Z,100512
2014-08-05T02:22:07.626Z,100509
2014-08-05T02:22:25.892Z,100512
2014-08-05T02:22:44.173Z,100509
2014-08-05T02:23:02.456Z,100506
2014-08-05T02:23:20.753Z,100520
2014-08-05T02:23:39.019Z,100520
2014-08-05T02:23:57.300Z,100509
2014-08-05T02:24:15.786Z,100509
2014-08-05T02:24:33.864Z,100509
2014-08-05T02:24:52.333Z,100515
2014-08-05T02:25:10.429Z,100515
2014-08-05T02:25:28.695Z,100515
2014-08-05T02:25:46.976Z,100515
2014-08-05T02:26:05.257Z,100509
2014-08-05T02:26:23.540Z,100515
2014-08-05T02:26:41.806Z,100509
2014-08-05T02:27:00.087Z,100515
2014-08-05T02:27:18.370Z,100512
2014-08-05T02:27:36.652Z,100512
2014-08-05T02:27:54.933Z,100515
2014-08-05T02:28:13.417Z,100517
2014-08-05T02:28:31.498Z,100515
2014-08-05T02:28:49.764Z,100517
2014-08-05T02:29:08.248Z,100520
2014-08-05T02:29:26.328Z,100529
2014-08-05T02:29:44.609Z,100515
2014-08-05T02:30:02.890Z,100520
2014-08-05T02:30:21.156Z,100520
2014-08-05T02:30:39.643Z,100517
2014-08-05T02:30:57.706Z,100520
2014-08-05T02:31:15.987Z,100520
2014-08-05T02:31:34.270Z,100515
2014-08-05T02:31:52.551Z,100515
2014-08-05T02:32:10.833Z,100515
2014-08-05T02:32:29.114Z,100520
2014-08-05T02:32:47.600Z,100520
2014-08-05T02:33:05.678Z,100517
2014-08-05T02:33:24.163Z,100517
2014-08-05T02:33:42.445Z,100517
2014-08-05T02:34:00.711Z,100520
2014-08-05T02:34:18.992Z,100523
2014-08-05T02:34:37.070Z,100512
2014-08-05T02:34:55.353Z,100526
2014-08-05T02:35:13.838Z,100520
2014-08-05T02:35:32.119Z,100523
2014-08-05T02:35:50.402Z,100515
2014-08-05T02:36:08.480Z,100517
2014-08-05T02:36:26.746Z,100520
2014-08-05T02:36:45.027Z,100523
2014-08-05T02:37:03.295Z,100520
2014-08-05T02:37:21.576Z,100515
2014-08-05T02:37:39.857Z,100529
2014-08-05T02:37:58.141Z,100512
2014-08-05T02:38:16.423Z,100517
2014-08-05T02:38:34.907Z,100517
2014-08-05T02:38:53.189Z,100517
2014-08-05T02:39:11.471Z,100517
2014-08-05T02:39:29.533Z,100515
2014-08-05T02:39:47.814Z,100515
2014-08-05T02:40:06.099Z,100526
2014-08-05T02:40:24.380Z,100520
2014-08-05T02:40:42.645Z,100515
2014-08-05T02:41:00.929Z,100515
2014-08-05T02:41:19.413Z,100517
2014-08-05T02:41:37.491Z,100517
2014-08-05T02:41:55.772Z,100515
2014-08-05T02:42:14.056Z,100517
2014-08-05T02:42:32.337Z,100515
2014-08-05T02:42:50.618Z,100520
2014-08-05T02:43:08.886Z,100515
2014-08-05T02:43:27.370Z,100523
2014-08-05T02:43:45.651Z,100512
2014-08-05T02:44:03.730Z,100515
2014-08-05T02:44:22.013Z,100517
2014-08-05T02:44:40.278Z,100520
2014-08-05T02:44:58.560Z,100515
2014-08-05T02:45:16.843Z,100520
2014-08-05T02:45:35.109Z,100517
2014-08-05T02:45:53.390Z,100512
2014-08-05T02:46:11.671Z,100520
2014-08-05T02:46:29.954Z,100517
2014-08-05T02:46:48.236Z,100515
2014-08-05T02:47:06.517Z,100515
2014-08-05T02:47:24.800Z,100515
2014-08-05T02:47:43.081Z,100523
2014-08-05T02:48:01.347Z,100520
2014-08-05T02:48:19.628Z,100520
2014-08-05T02:48:37.911Z,100515
2014-08-05T02:48:56.177Z,100515
2014-08-05T02:49:14.458Z,100515
2014-08-05T02:49:32.742Z,100517
2014-08-05T02:49:51.023Z,100509
2014-08-05T02:50:09.304Z,100520
2014-08-05T02:50:27.570Z,100515
2014-08-05T02:50:46.056Z,100515
2014-08-05T02:51:04.337Z,100515
2014-08-05T02:51:22.415Z,100515
2014-08-05T02:51:40.699Z,100517
2014-08-05T02:51:59.183Z,100509
2014-08-05T02:52:17.261Z,100520
2014-08-05T02:52:35.542Z,100512
2014-08-05T02:52:53.811Z,100512
2014-08-05T02:53:12.295Z,100515
2014-08-05T02:53:30.374Z,100517
2014-08-05T02:53:48.656Z,100500
2014-08-05T02:54:06.937Z,100515
2014-08-05T02:54:25.218Z,100515
2014-08-05T02:54:43.484Z,100517
2014-08-05T02:55:01.767Z,100515
2014-08-05T02:55:20.048Z,100517
2014-08-05T02:55:38.330Z,100509
2014-08-05T02:55:56.613Z,100515
2014-08-05T02:56:14.879Z,100515
2014-08-05T02:56:33.363Z,100509
2014-08-05T02:56:51.444Z,100512
2014-08-05T02:57:09.725Z,100517
2014-08-05T02:57:28.210Z,100517
2014-08-05T02:57:46.272Z,100515
2014-08-05T02:58:04.554Z,100515
2014-08-05T02:58:22.836Z,100517
2014-08-05T02:58:41.117Z,100517
2014-08-05T02:58:59.603Z,100523
2014-08-05T02:59:17.885Z,100520
2014-08-05T02:59:36.166Z,100523
2014-08-05T02:59:54.246Z,100529
2014-08-05T03:00:12.527Z,100512
2014-08-05T03:00:30.808Z,100509
2014-08-05T03:00:49.090Z,100515
2014-08-05T03:01:07.373Z,100515
2014-08-05T03:01:25.654Z,100515
2014-08-05T03:01:43.920Z,100520
2014-08-05T03:02:02.204Z,100520
2014-08-05T03:02:20.688Z,100520
2014-08-05T03:02:38.767Z,100512
2014-08-05T03:02:57.048Z,100520
2014-08-05T03:03:15.330Z,100526
2014-08-05T03:03:33.596Z,100506
2014-08-05T03:03:51.877Z,100517
2014-08-05T03:04:10.160Z,100526
2014-08-05T03:04:28.441Z,100515
2014-08-05T03:04:46.707Z,100520
2014-08-05T03:05:04.988Z,100509
2014-08-05T03:05:23.272Z,100515
2014-08-05T03:05:41.740Z,100515
2014-08-05T03:05:59.834Z,100515
2014-08-05T03:06:18.102Z,100523
2014-08-05T03:06:36.399Z,100515
2014-08-05T03:06:54.680Z,100520
2014-08-05T03:07:12.961Z,100512
2014-08-05T03:07:31.244Z,100515
2014-08-05T03:07:49.510Z,100517
2014-08-05T03:08:07.791Z,100517
2014-08-05T03:08:26.074Z,100526
2014-08-05T03:08:44.356Z,100517
2014-08-05T03:09:02.637Z,100523
2014-08-05T03:09:20.918Z,100520
2014-08-05T03:09:39.406Z,100503
2014-08-05T03:09:57.468Z,100520
2014-08-05T03:10:15.749Z,100517
2014-08-05T03:10:34.032Z,100509
2014-08-05T03:10:52.516Z,100520
2014-08-05T03:11:10.594Z,100520
2014-08-05T03:11:29.078Z,100517
2014-08-05T03:11:47.363Z,100523
2014-08-05T03:12:05.425Z,100529
2014-08-05T03:12:23.722Z,100515
2014-08-05T03:12:41.990Z,100526
2014-08-05T03:13:00.271Z,100517
2014-08-05T03:13:18.552Z,100520
2014-08-05T03:13:36.818Z,100509
2014-08-05T03:13:55.101Z,100526
2014-08-05T03:14:13.585Z,100529
2014-08-05T03:14:31.664Z,100517
2014-08-05T03:15:01.009Z,100529
2014-08-05T03:15:29.244Z,100529
2014-08-05T03:15:47.525Z,100529
2014-08-05T03:16:05.808Z,100526
2014-08-05T03:16:24.089Z,100517
2014-08-05T03:16:42.371Z,100526
2014-08-05T03:17:00.654Z,100520
2014-08-05T03:17:18.951Z,100523
2014-08-05T03:17:37.232Z,100523
2014-08-05T03:17:55.513Z,100532
2014-08-05T03:18:14.000Z,100526
2014-08-05T03:18:32.281Z,100523
2014-08-05T03:18:50.359Z,100532
2014-08-05T03:19:08.642Z,100520
2014-08-05T03:19:26.924Z,100529
2014-08-05T03:19:45.220Z,100529
2014-08-05T03:20:03.705Z,100529
2014-08-05T03:20:21.988Z,100529
2014-08-05T03:20:40.269Z,100532
2014-08-05T03:20:58.347Z,100529
2014-08-05T03:21:16.662Z,100532
2014-08-05T03:21:34.943Z,100529
2014-08-05T03:21:53.224Z,100532
2014-08-05T03:22:11.506Z,100535
2014-08-05T03:22:29.789Z,100526
2014-08-05T03:22:48.086Z,100537
2014-08-05T03:23:06.367Z,100532
2014-08-05T03:23:24.650Z,100529
2014-08-05T03:23:43.166Z,100526
2014-08-05T03:24:01.228Z,100526
2014-08-05T03:24:19.525Z,100532
2014-08-05T03:24:37.809Z,100523
2014-08-05T03:24:56.105Z,100537
2014-08-05T03:25:14.590Z,100537
2014-08-05T03:25:32.686Z,100526
2014-08-05T03:25:51.186Z,100532
2014-08-05T03:26:09.264Z,100532
2014-08-05T03:26:27.545Z,100537
2014-08-05T03:26:45.828Z,100537
2014-08-05T03:27:04.125Z,100532
2014-08-05T03:27:22.406Z,100532
2014-08-05T03:27:40.721Z,100520
2014-08-05T03:27:59.002Z,100526
2014-08-05T03:28:17.283Z,100532
2014-08-05T03:28:35.565Z,100537
2014-08-05T03:28:53.863Z,100523
2014-08-05T03:29:12.145Z,100540
2014-08-05T03:29:30.426Z,100537
2014-08-05T03:29:48.725Z,100532
2014-08-05T03:30:07.006Z,100532
2014-08-05T03:30:25.506Z,100529
2014-08-05T03:30:43.584Z,100532
2014-08-05T03:31:01.868Z,100532
2014-08-05T03:31:20.150Z,100532
2014-08-05T03:31:38.431Z,100535
2014-08-05T03:31:56.713Z,100535
2014-08-05T03:32:15.010Z,100532
2014-08-05T03:32:33.291Z,100529
2014-08-05T03:32:51.588Z,100523
2014-08-05T03:33:10.076Z,100526
2014-08-05T03:33:28.154Z,100535
2014-08-05T03:33:46.451Z,100532
2014-08-05T03:34:04.936Z,100529
2014-08-05T03:34:23.014Z,100532
2014-08-05T03:34:41.295Z,100523
2014-08-05T03:34:59.592Z,100540
2014-08-05T03:35:17.875Z,100532
2014-08-05T03:35:36.172Z,100529
2014-08-05T03:35:54.454Z,100532
2014-08-05T03:36:12.738Z,100526
2014-08-05T03:36:31.019Z,100535
2014-08-05T03:36:49.316Z,100543
2014-08-05T03:37:07.597Z,100526
2014-08-05T03:37:26.098Z,100529
2014-08-05T03:37:44.176Z,100532
2014-08-05T03:38:02.458Z,100529
2014-08-05T03:38:20.757Z,100535
2014-08-05T03:38:39.039Z,100535
2014-08-05T03:38:57.320Z,100540
2014-08-05T03:39:15.617Z,100535
2014-08-05T03:39:33.900Z,100535
2014-08-05T03:39:52.181Z,100535
2014-08-05T03:40:10.463Z,100546
2014-08-05T03:40:28.761Z,100532
2014-08-05T03:40:47.043Z,100537
2014-08-05T03:41:05.324Z,100540
2014-08-05T03:41:23.605Z,100535
2014-08-05T03:41:41.904Z,100540
2014-08-05T03:42:00.388Z,100537
2014-08-05T03:42:18.482Z,100540
2014-08-05T03:42:36.765Z,100532
2014-08-05T03:42:55.000Z,100537
2014-08-05T03:43:13.328Z,100537
2014-08-05T03:43:31.625Z,100537
2014-08-05T03:43:49.908Z,100540
2014-08-05T03:44:08.189Z,100546
2014-08-05T03:44:26.674Z,100537
2014-08-05T03:44:44.769Z,100540
2014-08-05T03:45:03.051Z,100537
2014-08-05T03:45:21.535Z,100540
2014-08-05T03:45:39.613Z,100529
2014-08-05T03:45:57.912Z,100540
2014-08-05T03:46:16.396Z,100537
2014-08-05T03:46:34.490Z,100537
2014-08-05T03:46:52.977Z,100535
2014-08-05T03:47:11.055Z,100535
2014-08-05T03:47:29.336Z,100537
2014-08-05T03:47:47.617Z,100540
2014-08-05T03:48:06.119Z,100537
2014-08-05T03:48:24.197Z,100535